グアヤキル空港の過去48時間の天気

グアヤキル空港 (Guayaquil / Simon Bolivar)

現在時刻: 9/25 16:13 -05 (9/25 21:13 UTC) 以下の時間は現地時間です。

過去48時間のMETAR気象情報
時間 風向 風速(m/s) 視程 気温(℃) 湿度(%) 気圧(hPa) 天気現象
25 16:00 南南東 4 10km以上 29 58 1007
25 15:00 南東 3 10km以上 29 58 1007
25 14:00 南東 2 10km以上 28 62 1009
25 13:00 南南東 3 10km以上 27 66 1010
25 12:00 南東 3 10km以上 27 66 1011
25 11:00 南東 2 10km以上 26 70 1012
25 10:00 2 10km以上 25 69 1012
25 09:00 南西 2 10km以上 24 74 1012
25 08:00 南西 2 10km以上 23 78 1012
25 07:00 西南西 2 10km以上 22 83 1011
25 06:00 西 4 10km以上 22 78 1010
25 05:00 南西 4 10km以上 22 78 1010
25 04:00 南西 5 10km以上 22 83 1010
25 03:00 南西 3 10km以上 22 83 1010
25 02:00 西南西 4 10km以上 22 83 1011
25 01:00 南西 6 10km以上 22 83 1011
25 00:00 南西 5 10km以上 22 83 1012
24 23:00 南西 4 10km以上 22 83 1012
24 22:00 南西 6 10km以上 23 78 1012
24 21:00 南西 6 10km以上 24 74 1011
24 20:00 南南西 5 10km以上 24 78 1011
24 19:00 南南西 6 10km以上 25 74 1010
24 18:00 南南東 3 10km以上 26 79 1009
24 17:00 4 10km以上 27 70 1009
24 16:00 南南東 3 10km以上 27 70 1009
24 15:00 南南東 3 10km以上 28 66 1010
24 14:00 南南東 4 10km以上 29 62 1010
24 13:00 南南東 3 10km以上 29 62 1011
24 12:00 南東 3 10km以上 28 62 1012
24 11:00 南南東 2 10km以上 27 66 1013
24 10:00 2 10km以上 25 74 1014
24 09:00 3 10km以上 24 78 1014
24 08:00 南南西 3 10km以上 24 78 1013
24 07:00 西南西 3 10km以上 23 83 1012
24 06:00 西南西 3 10km以上 23 83 1011
24 05:00 南西 3 10km以上 23 83 1011
24 04:00 南西 4 10km以上 22 83 1011
24 03:00 南西 4 10km以上 22 83 1011
24 02:00 南西 4 10km以上 22 83 1011
24 01:00 南南西 4 10km以上 22 83 1012
24 00:00 南西 6 10km以上 22 83 1013
23 23:00 南西 6 10km以上 22 83 1013
23 22:00 南南西 6 10km以上 22 83 1013
23 21:00 南南西 6 10km以上 23 78 1013
23 20:00 南西 6 10km以上 24 74 1012
23 19:00 南南西 5 10km以上 24 78 1011
23 18:00 4 10km以上 25 74 1010
23 17:00 4 10km以上 26 70 1009
SEGU 252100Z 16007KT 9999 FEW023 29/20 Q1007 NOSIG RMK A2974
SEGU 252000Z 14006KT 060V170 9999 FEW023 29/20 Q1007 NOSIG RMK A2975
SEGU 251900Z 13003KT 070V180 9999 FEW023 28/20 Q1009 NOSIG RMK A2979
SEGU 251800Z 15006KT 100V180 9999 SCT023 BKN090 27/20 Q1010 NOSIG RMK A2983
SEGU 251700Z 14005KT 9999 SCT020 BKN026 BKN100 27/20 Q1011 NOSIG RMK A2986
SEGU 251600Z 14004KT 090V160 9999 SCT020 BKN026 26/20 Q1012 NOSIG RMK A2989
SEGU 251500Z 19003KT 150V320 9999 FEW020 BKN026 25/19 Q1012 NOSIG RMK A2989
SEGU 251400Z 22003KT 170V240 9999 OVC023 24/19 Q1012 NOSIG RMK A2990
SEGU 251300Z 22004KT 180V240 9999 OVC023 23/19 Q1012 NOSIG RMK A2989
SEGU 251200Z 24003KT 9999 FEW013 BKN026 22/19 Q1011 NOSIG RMK A2987
SEGU 251100Z 26007KT 9999 FEW010 BKN026 22/18 Q1010 NOSIG RMK A2985
SEGU 251000Z 23007KT 9999 FEW013 SCT026 22/18 Q1010 NOSIG RMK A2984
SEGU 250900Z 23009KT 9999 FEW013 SCT026 22/19 Q1010 NOSIG RMK A2983
SEGU 250800Z 23005KT 9999 FEW013 SCT026 22/19 Q1010 NOSIG RMK A2985
SEGU 250700Z 24008KT 9999 FEW013 SCT026 22/19 Q1011 NOSIG RMK A2986
SEGU 250600Z 22012KT 9999 FEW013 SCT026 22/19 Q1011 NOSIG RMK A2987
SEGU 250500Z 22010KT 9999 FEW013 SCT026 22/19 Q1012 NOSIG RMK A2990
SEGU 250400Z 23008KT 9999 FEW026 SCT100 22/19 Q1012 NOSIG RMK A2990
SEGU 250300Z 22011KT 9999 FEW026 SCT100 23/19 Q1012 NOSIG RMK A2990
SEGU 250200Z 22012KT 9999 FEW026 SCT100 24/19 Q1011 NOSIG RMK A2987
SEGU 250100Z 21010KT 9999 FEW026 SCT100 24/20 Q1011 NOSIG RMK A2985
SEGU 250000Z 21012KT 9999 SCT026 BKN100 25/20 Q1010 NOSIG RMK A2983
SEGU 242300Z 16006KT 9999 BKN026 BKN100 26/22 Q1009 NOSIG RMK A2981
SEGU 242200Z 17007KT 9999 FEW023 BKN100 27/21 Q1009 NOSIG RMK A2980
SEGU 242100Z 15006KT 9999 SCT023 SCT030 BKN100 27/21 Q1009 NOSIG RMK A2980
SEGU 242000Z 15006KT 110V180 9999 SCT023 SCT030 BKN100 28/21 Q1010 NOSIG RMK A2982
SEGU 241900Z 16007KT 120V180 9999 FEW026 BKN100 29/21 Q1010 NOSIG RMK A2984
SEGU 241800Z 15006KT 9999 FEW026 SCT200 29/21 Q1011 NOSIG RMK A2987
SEGU 241700Z 14005KT 090V170 9999 FEW023 SCT200 28/20 Q1012 NOSIG RMK A2990
SEGU 241600Z 15004KT 9999 FEW023 SCT100 27/20 Q1013 NOSIG RMK A2993
SEGU 241500Z 17003KT 160V240 9999 FEW023 BKN026 BKN100 25/20 Q1014 NOSIG RMK A2995
SEGU 241400Z 19005KT 9999 BKN026 BKN100 24/20 Q1014 NOSIG RMK A2994
SEGU 241300Z 21005KT 9999 FEW013 BKN023 BKN100 24/20 Q1013 NOSIG RMK A2992
SEGU 241200Z 25006KT 9999 BKN020 BKN100 23/20 Q1012 NOSIG RMK A2990
SEGU 241100Z 24006KT 9999 BKN020 BKN100 23/20 Q1011 NOSIG RMK A2989
SEGU 241000Z 23005KT 9999 BKN026 BKN100 23/20 Q1011 NOSIG RMK A2987
SEGU 240900Z 23007KT 9999 BKN026 BKN100 22/19 Q1011 NOSIG RMK A2987
SEGU 240800Z 22008KT CAVOK 22/19 Q1011 NOSIG RMK A2987
SEGU 240700Z 22008KT CAVOK 22/19 Q1011 NOSIG RMK A2987
SEGU 240600Z 21008KT CAVOK 22/19 Q1012 NOSIG RMK A2990
SEGU 240500Z 22011KT CAVOK 22/19 Q1013 NOSIG RMK A2991
SEGU 240400Z 22011KT CAVOK 22/19 Q1013 NOSIG RMK A2993
SEGU 240300Z 21012KT CAVOK 22/19 Q1013 NOSIG RMK A2992
SEGU 240200Z 21011KT 9999 FEW010 BKN023 23/19 Q1013 NOSIG RMK A2991
SEGU 240100Z 22012KT 9999 FEW010 BKN023 24/19 Q1012 NOSIG RMK A2989
SEGU 240000Z 20009KT 9999 SCT026 SCT100 24/20 Q1011 NOSIG RMK A2986
SEGU 232300Z 19008KT 9999 SCT026 SCT100 25/20 Q1010 NOSIG RMK A2984
SEGU 232200Z 19007KT 160V220 9999 SCT026 BKN100 26/20 Q1009 NOSIG RMK A2981